Time,TemperatureF,DewpointF,PressureIn,WindDirection,WindDirectionDegrees,WindSpeedMPH,WindSpeedGustMPH,Humidity,HourlyPrecipIn,Conditions,Clouds,dailyrainin,SoftwareType,DateUTC
2013-09-20 00:13:00,71.0,67.0,29.96,SE,136,0.0,0.0,87,0.00,,,0.00,,2013-09-20 05:13:00,
2013-09-20 00:23:00,71.0,67.0,30.00,West,269,1.0,8.0,88,0.04,,,0.04,,2013-09-20 05:23:00,
2013-09-20 00:53:00,70.0,68.0,29.98,South,173,0.0,0.0,93,0.19,,,0.19,,2013-09-20 05:53:00,
2013-09-20 01:12:00,69.0,67.0,29.98,South,173,0.0,0.0,93,0.20,,,0.20,,2013-09-20 06:12:00,
2013-09-20 01:22:00,69.0,67.0,29.97,South,173,0.0,0.0,94,0.15,,,0.20,,2013-09-20 06:22:00,
2013-09-20 01:52:00,69.0,67.0,29.96,East,85,0.0,1.0,94,0.01,,,0.20,,2013-09-20 06:52:00,
2013-09-20 02:11:00,69.0,68.0,29.98,SSW,204,0.0,0.0,95,0.01,,,0.21,,2013-09-20 07:11:00,
2013-09-20 02:23:00,69.0,68.0,29.99,SSE,156,0.0,1.0,95,0.02,,,0.22,,2013-09-20 07:23:00,
2013-09-20 02:42:00,69.0,68.0,29.99,SSE,156,0.0,0.0,95,0.04,,,0.24,,2013-09-20 07:42:00,
2013-09-20 02:53:00,69.0,68.0,30.01,SSE,157,0.0,0.0,95,0.07,,,0.27,,2013-09-20 07:53:00,
2013-09-20 03:11:00,69.0,68.0,30.02,SSE,148,0.0,1.0,95,0.12,,,0.33,,2013-09-20 08:11:00,
2013-09-20 03:22:00,69.0,68.0,30.01,SE,141,0.0,0.0,95,0.17,,,0.39,,2013-09-20 08:22:00,
2013-09-20 03:52:00,68.0,67.0,30.00,SE,141,0.0,0.0,95,0.19,,,0.46,,2013-09-20 08:52:00,
2013-09-20 04:22:00,68.0,67.0,29.99,SE,143,0.0,0.0,95,0.11,,,0.50,,2013-09-20 09:22:00,
2013-09-20 04:43:00,68.0,67.0,29.98,NE,34,0.0,1.0,96,0.10,,,0.53,,2013-09-20 09:43:00,
2013-09-20 04:53:00,68.0,67.0,29.98,North,359,0.0,1.0,95,0.08,,,0.54,,2013-09-20 09:53:00,
2013-09-20 05:12:00,68.0,67.0,29.97,ENE,77,0.0,0.0,95,0.07,,,0.54,,2013-09-20 10:12:00,
2013-09-20 05:23:00,67.0,66.0,29.98,SSW,192,0.0,1.0,95,0.05,,,0.55,,2013-09-20 10:23:00,
2013-09-20 05:42:00,67.0,66.0,29.98,WNW,295,0.0,0.0,95,0.04,,,0.56,,2013-09-20 10:42:00,
2013-09-20 05:53:00,67.0,66.0,29.97,WNW,295,0.0,0.0,95,0.04,,,0.57,,2013-09-20 10:53:00,
2013-09-20 06:12:00,67.0,66.0,29.97,NW,318,0.0,0.0,95,0.04,,,0.57,,2013-09-20 11:12:00,
2013-09-20 06:23:00,67.0,66.0,29.97,North,9,0.0,0.0,96,0.04,,,0.59,,2013-09-20 11:23:00,
2013-09-20 06:42:00,67.0,66.0,29.97,North,8,0.0,0.0,96,0.03,,,0.60,,2013-09-20 11:42:00,
2013-09-20 06:52:00,67.0,66.0,29.98,North,8,0.0,0.0,96,0.03,,,0.61,,2013-09-20 11:52:00,
2013-09-20 07:12:00,67.0,66.0,29.99,North,9,0.0,0.0,96,0.03,,,0.61,,2013-09-20 12:12:00,
2013-09-20 07:22:00,67.0,66.0,29.99,North,8,0.0,0.0,96,0.02,,,0.61,,2013-09-20 12:22:00,
2013-09-20 07:42:00,67.0,66.0,29.99,North,9,0.0,0.0,96,0.01,,,0.61,,2013-09-20 12:42:00,
2013-09-20 07:52:00,67.0,66.0,30.00,North,9,0.0,0.0,96,0.00,,,0.61,,2013-09-20 12:52:00,
2013-09-20 08:12:00,67.0,66.0,30.00,North,9,0.0,0.0,96,0.00,,,0.61,,2013-09-20 13:12:00,
2013-09-20 08:21:00,67.0,66.0,30.01,North,9,0.0,0.0,96,0.00,,,0.61,,2013-09-20 13:21:00,
2013-09-20 08:42:00,67.0,66.0,30.01,NNE,20,0.0,1.0,96,0.00,,,0.61,,2013-09-20 13:42:00,
2013-09-20 08:52:00,67.0,66.0,30.01,North,11,0.0,3.0,96,0.00,,,0.61,,2013-09-20 13:52:00,
2013-09-20 09:21:00,68.0,67.0,30.00,North,5,0.0,3.0,96,0.00,,,0.61,,2013-09-20 14:21:00,
2013-09-20 09:42:00,68.0,67.0,30.01,North,352,0.0,3.0,96,0.00,,,0.61,,2013-09-20 14:42:00,
2013-09-20 09:52:00,68.0,67.0,30.00,North,5,2.0,5.0,96,0.00,,,0.61,,2013-09-20 14:52:00,
2013-09-20 10:12:00,68.0,67.0,30.00,North,356,0.0,2.0,95,0.00,,,0.61,,2013-09-20 15:12:00,
2013-09-20 10:22:00,69.0,68.0,30.00,North,6,1.0,3.0,95,0.00,,,0.61,,2013-09-20 15:22:00,
2013-09-20 10:44:00,69.0,67.0,30.00,North,356,0.0,3.0,94,0.00,,,0.61,,2013-09-20 15:44:00,
2013-09-20 10:54:00,69.0,67.0,30.00,NNW,342,2.0,8.0,94,0.00,,,0.61,,2013-09-20 15:54:00,
2013-09-20 11:13:00,68.0,66.0,30.01,North,354,2.0,11.0,92,0.00,,,0.61,,2013-09-20 16:13:00,
2013-09-20 11:23:00,68.0,66.0,30.01,North,354,2.0,11.0,92,0.00,,,0.61,,2013-09-20 16:23:00,
2013-09-20 11:42:00,67.0,65.0,30.03,North,354,1.0,5.0,94,0.00,,,0.61,,2013-09-20 16:42:00,
2013-09-20 11:53:00,66.0,64.0,30.02,NNW,343,0.0,9.0,94,0.00,,,0.61,,2013-09-20 16:53:00,
2013-09-20 12:13:00,66.0,64.0,30.03,North,356,2.0,8.0,93,0.00,,,0.61,,2013-09-20 17:13:00,
2013-09-20 12:24:00,66.0,63.0,30.03,NNW,339,2.0,11.0,91,0.00,,,0.61,,2013-09-20 17:24:00,
2013-09-20 12:42:00,67.0,64.0,30.03,NNW,335,4.0,11.0,89,0.00,,,0.61,,2013-09-20 17:42:00,
2013-09-20 12:53:00,67.0,63.0,30.04,NNW,345,3.0,8.0,87,0.00,,,0.61,,2013-09-20 17:53:00,
2013-09-20 13:12:00,67.0,63.0,30.03,NNW,329,1.0,6.0,86,0.00,,,0.61,,2013-09-20 18:12:00,
2013-09-20 13:22:00,67.0,62.0,30.03,NNW,345,2.0,8.0,84,0.00,,,0.61,,2013-09-20 18:22:00,
2013-09-20 13:42:00,67.0,61.0,30.03,NW,324,3.0,10.0,82,0.00,,,0.61,,2013-09-20 18:42:00,
2013-09-20 13:52:00,68.0,61.0,30.02,NNW,343,3.0,8.0,79,0.00,,,0.61,,2013-09-20 18:52:00,
2013-09-20 14:11:00,69.0,61.0,30.02,NNW,342,3.0,7.0,77,0.00,,,0.61,,2013-09-20 19:11:00,
2013-09-20 14:22:00,69.0,61.0,30.01,North,9,3.0,9.0,76,0.00,,,0.61,,2013-09-20 19:22:00,
2013-09-20 14:42:00,69.0,60.0,30.00,NNW,345,4.0,10.0,72,0.00,,,0.61,,2013-09-20 19:42:00,
2013-09-20 14:53:00,69.0,59.0,30.00,North,7,4.0,7.0,71,0.00,,,0.61,,2013-09-20 19:53:00,
2013-09-20 15:12:00,69.0,60.0,30.00,North,353,3.0,9.0,72,0.00,,,0.61,,2013-09-20 20:12:00,
2013-09-20 15:22:00,69.0,59.0,30.00,NNW,339,3.0,8.0,71,0.00,,,0.61,,2013-09-20 20:22:00,
2013-09-20 15:42:00,69.0,59.0,30.00,NNW,345,2.0,8.0,71,0.00,,,0.61,,2013-09-20 20:42:00,
2013-09-20 15:52:00,69.0,59.0,30.00,NNE,32,1.0,6.0,70,0.00,,,0.61,,2013-09-20 20:52:00,
2013-09-20 16:12:00,70.0,60.0,30.00,NNW,330,2.0,7.0,70,0.00,,,0.61,,2013-09-20 21:12:00,
2013-09-20 16:21:00,70.0,59.0,30.00,NNW,339,2.0,6.0,69,0.00,,,0.61,,2013-09-20 21:21:00,
2013-09-20 16:55:00,70.0,58.0,29.99,NNW,337,2.0,10.0,65,0.00,,,0.61,,2013-09-20 21:55:00,
2013-09-20 17:14:00,70.0,57.0,29.99,North,353,2.0,10.0,63,0.00,,,0.61,,2013-09-20 22:14:00,
2013-09-20 17:23:00,71.0,58.0,29.99,NNW,337,0.0,5.0,64,0.00,,,0.61,,2013-09-20 22:23:00,
2013-09-20 17:44:00,70.0,56.0,29.99,NNW,343,4.0,8.0,61,0.00,,,0.61,,2013-09-20 22:44:00,
2013-09-20 17:53:00,70.0,56.0,29.99,NW,323,1.0,8.0,62,0.00,,,0.61,,2013-09-20 22:53:00,
2013-09-20 18:13:00,70.0,57.0,29.99,NNW,348,2.0,6.0,63,0.00,,,0.61,,2013-09-20 23:13:00,
2013-09-20 18:22:00,70.0,57.0,29.99,North,356,2.0,5.0,63,0.00,,,0.61,,2013-09-20 23:22:00,
2013-09-20 18:53:00,69.0,58.0,29.99,North,5,0.0,2.0,68,0.00,,,0.61,,2013-09-20 23:53:00,
2013-09-20 19:11:00,68.0,57.0,30.00,NNW,348,0.0,2.0,69,0.00,,,0.61,,2013-09-21 00:11:00,
2013-09-20 19:21:00,68.0,58.0,30.00,NNW,340,0.0,0.0,71,0.00,,,0.61,,2013-09-21 00:21:00,
2013-09-20 19:42:00,67.0,58.0,30.01,North,354,0.0,3.0,73,0.00,,,0.61,,2013-09-21 00:42:00,
2013-09-20 19:52:00,67.0,58.0,30.00,NNE,18,0.0,1.0,74,0.00,,,0.61,,2013-09-21 00:52:00,
2013-09-20 20:12:00,66.0,57.0,30.00,NNW,345,0.0,3.0,74,0.00,,,0.61,,2013-09-21 01:12:00,
2013-09-20 20:22:00,66.0,57.0,30.00,North,5,0.0,1.0,74,0.00,,,0.61,,2013-09-21 01:22:00,
2013-09-20 20:42:00,65.0,56.0,30.01,North,356,0.0,2.0,73,0.00,,,0.61,,2013-09-21 01:42:00,
2013-09-20 20:52:00,65.0,57.0,30.01,North,349,0.0,2.0,76,0.00,,,0.61,,2013-09-21 01:52:00,
2013-09-20 21:02:00,65.0,57.0,30.01,North,349,0.0,2.0,76,0.00,,,0.61,,2013-09-21 02:02:00,
2013-09-20 21:12:00,65.0,57.0,30.01,North,349,0.0,2.0,76,0.00,,,0.61,,2013-09-21 02:12:00,
2013-09-20 21:22:00,64.0,57.0,30.02,NNW,347,0.0,0.0,78,0.00,,,0.61,,2013-09-21 02:22:00,
2013-09-20 21:42:00,64.0,57.0,30.02,North,359,0.0,3.0,77,0.00,,,0.61,,2013-09-21 02:42:00,
2013-09-20 21:52:00,64.0,58.0,30.02,North,360,0.0,1.0,80,0.00,,,0.61,,2013-09-21 02:52:00,
2013-09-20 22:12:00,63.0,57.0,30.02,North,1,0.0,1.0,82,0.00,,,0.61,,2013-09-21 03:12:00,
2013-09-20 22:22:00,62.0,56.0,30.02,North,352,0.0,2.0,82,0.00,,,0.61,,2013-09-21 03:22:00,
2013-09-20 22:44:00,62.0,56.0,30.03,North,356,0.0,2.0,82,0.00,,,0.61,,2013-09-21 03:44:00,
2013-09-20 22:55:00,62.0,57.0,30.03,North,1,0.0,1.0,84,0.00,,,0.61,,2013-09-21 03:55:00,
2013-09-20 23:14:00,61.0,57.0,30.03,North,1,0.0,0.0,87,0.00,,,0.61,,2013-09-21 04:14:00,
2013-09-20 23:24:00,60.0,56.0,30.03,North,359,0.0,1.0,88,0.00,,,0.61,,2013-09-21 04:24:00,
2013-09-20 23:54:00,59.0,56.0,30.03,North,360,0.0,0.0,90,0.00,,,0.61,,2013-09-21 04:54:00,